Airfield :







YOU CAN JOIN US ON...

 
LOGIN :

Register | Disclaimer

   EN    FR    IT 

 









Legend :    VFR   Marginal VFR   IFR   Intensive IFR   Very Intensive IFR
Visi :
Ceiling :
>= 8 km
>= 3000ft
5 to 8 km
1000 to 3000 ft
1500m to 5 km
500 to 1000 ft
800 to 1500m
200 to 500 ft
< 800m
< 200 ft
Symbols :   Thunderstorms  Fog  Heavy snow  Heavy precipitations  Wind > 20 kt






- Airport Elevation : 1808 ft
- IATA code : YWK


CYWK - Wabush

CURRENT METAR :
  • 300600Z AUTO 28006KT 9SM -SN OVC034 M08/M10 A2994 RMK SLP183

EXPIRED METARs :
  • 300500Z AUTO 25005KT 9SM -SN OVC034 M08/M10 A2994 RMK SLP179
  • 300400Z AUTO VRB03KT 9SM -SN OVC034 M09/M11 A2993 RMK SLP177

TAF TAF CYWK
Valid from the 30 at 02:00 until the 30 at 14:00 UTC


300138Z 3002/3014 VRB03KT P6SM SCT015 OVC030
TEMPO 3002/3009 2SM -SN BKN015 OVC030
FM300900 VRB03KT P6SM SCT012 BKN030
TEMPO 3009/3014 3SM -SN BKN012 BKN030 RMK NXT FCST BY 300800Z
CZUL FIR / North America



MET'MAP, your aeronautical weather chart ! - Copyright ORBIFLY December 2007 - Disclaimer

ORBIFLY MET'MAP TEAM :

Programming & Development : Alexandra Zaïnal
Concept & original design : Baudouin d'Aumeries
Assistance for programming : Marc-Olivier Méhu
Technical & hardware support : Manuel Goepfert

Contact : metmap@orbifly.com




SOURCES & CREDITS :

   NOAA